createdAt,value
2024-04-13T12:49:08.933Z,21.05
2024-04-13T12:51:35.743Z,21.08
2024-04-13T12:54:02.406Z,21.08
2024-04-13T12:56:29.322Z,21.06
2024-04-13T12:58:55.941Z,21.06
2024-04-13T13:01:25.557Z,21.05
2024-04-13T13:03:52.513Z,21.10
2024-04-13T13:06:19.507Z,21.10
2024-04-13T13:08:46.223Z,21.05
2024-04-13T13:11:13.074Z,21.09
2024-04-13T13:13:39.857Z,21.01
2024-04-13T13:16:07.606Z,21.08
2024-04-13T13:18:34.536Z,21.06
2024-04-13T13:21:01.283Z,21.09
2024-04-13T13:23:27.896Z,21.09
2024-04-13T13:25:55.786Z,21.09
2024-04-13T13:28:22.723Z,21.09
2024-04-13T13:30:49.559Z,21.01
2024-04-13T13:33:16.395Z,21.09
2024-04-13T13:35:43.203Z,21.08
2024-04-13T13:38:11.369Z,21.08
2024-04-13T13:40:38.055Z,21.09
2024-04-13T13:43:06.321Z,20.97
2024-04-13T13:45:33.140Z,21.10
2024-04-13T13:47:59.952Z,21.10
2024-04-13T13:50:26.807Z,21.09
2024-04-13T13:52:53.499Z,21.08
2024-04-13T13:55:20.281Z,21.12
2024-04-13T13:57:47.012Z,21.09
2024-04-13T14:00:14.118Z,21.11
2024-04-13T14:02:40.815Z,21.10
2024-04-13T14:05:07.727Z,21.12
2024-04-13T14:07:34.510Z,21.11
2024-04-13T14:10:01.424Z,21.08
2024-04-13T14:12:28.090Z,21.11
2024-04-13T14:14:56.235Z,21.08
2024-04-13T14:17:23.110Z,20.86
2024-04-13T14:19:49.805Z,21.10
2024-04-13T14:22:16.471Z,21.01
2024-04-13T14:24:43.253Z,21.13
2024-04-13T14:27:09.876Z,21.10
2024-04-13T14:29:37.337Z,21.14
2024-04-13T14:32:04.368Z,21.14
2024-04-13T14:34:31.126Z,21.14
2024-04-13T14:36:58.888Z,21.14
2024-04-13T14:39:25.751Z,21.14
2024-04-13T14:41:52.791Z,21.11
2024-04-13T14:44:20.422Z,21.13
2024-04-13T14:46:48.479Z,21.15
2024-04-13T14:49:15.269Z,21.14
2024-04-13T14:51:41.927Z,21.10
2024-04-13T14:54:08.913Z,21.15
2024-04-13T14:56:35.627Z,21.14
2024-04-13T14:59:02.304Z,21.15
2024-04-13T15:01:29.077Z,21.16
2024-04-13T15:03:56.167Z,21.17
2024-04-13T15:06:24.739Z,21.18
2024-04-13T15:08:51.817Z,21.18
2024-04-13T15:11:18.612Z,21.17
2024-04-13T15:13:45.386Z,21.18
2024-04-13T15:16:12.057Z,21.15
2024-04-13T15:35:37.156Z,23.23
2024-04-13T15:38:04.426Z,22.93
2024-04-13T15:40:32.489Z,23.15
2024-04-13T15:43:05.676Z,22.91
2024-04-13T15:45:33.006Z,22.84
2024-04-13T15:48:02.932Z,22.76
2024-04-13T15:50:30.735Z,22.93
2024-04-13T15:53:00.014Z,22.92
2024-04-13T15:55:28.435Z,22.93
2024-04-13T15:57:55.827Z,22.48
2024-04-13T16:00:23.234Z,22.86
2024-04-13T16:02:50.634Z,23.09
2024-04-13T16:05:17.907Z,23.16
2024-04-13T16:07:45.135Z,23.23
2024-04-13T16:10:12.544Z,23.14
2024-04-13T16:12:39.928Z,23.18
2024-04-13T16:15:10.059Z,23.06
2024-04-13T16:17:37.352Z,23.21
2024-04-13T16:20:04.903Z,23.18
2024-04-13T16:22:31.564Z,22.82
2024-04-13T16:24:58.495Z,22.76
2024-04-13T16:27:25.281Z,22.99
2024-04-13T16:29:51.957Z,23.02
2024-04-13T16:32:18.627Z,23.11
2024-04-13T16:34:45.346Z,22.89
2024-04-13T16:37:12.136Z,22.79
2024-04-13T16:39:38.843Z,22.59
2024-04-13T16:42:05.902Z,22.57
2024-04-13T16:44:32.517Z,22.63
2024-04-13T16:47:00.949Z,22.59
2024-04-13T16:49:27.671Z,22.52
2024-04-13T16:51:54.469Z,22.46
2024-04-13T16:54:22.428Z,22.46
2024-04-13T16:56:49.466Z,22.36
2024-04-13T16:59:16.136Z,22.32
2024-04-13T17:01:42.839Z,22.14
2024-04-13T17:04:09.709Z,22.22
2024-04-13T17:06:36.813Z,22.11
2024-04-13T17:09:04.242Z,21.91
2024-04-13T17:11:31.003Z,21.93
2024-04-13T17:13:57.767Z,21.91
2024-04-13T17:16:24.805Z,21.85
2024-04-13T17:18:51.751Z,21.83
2024-04-13T17:21:18.566Z,21.76
2024-04-13T17:23:45.688Z,21.62
2024-04-13T17:26:12.472Z,21.42
2024-04-13T17:28:39.128Z,21.41
2024-04-13T17:31:06.401Z,21.26
2024-04-13T17:33:33.101Z,21.26
2024-04-13T17:35:59.759Z,21.08
2024-04-13T17:38:26.393Z,20.87
2024-04-13T17:41:00.486Z,20.50
2024-04-13T17:43:28.541Z,20.74
2024-04-13T17:45:55.659Z,20.46
2024-04-13T17:48:23.602Z,20.37
2024-04-13T17:50:53.766Z,20.19
2024-04-13T17:53:21.450Z,20.19
2024-04-13T17:55:48.206Z,20.04
2024-04-13T17:58:14.895Z,19.86
2024-04-13T18:00:41.754Z,19.59
2024-04-13T18:03:09.049Z,19.62
2024-04-13T18:05:36.478Z,19.37
2024-04-13T18:08:05.754Z,19.40
2024-04-13T18:10:32.690Z,19.30
2024-04-13T18:12:59.480Z,19.18
2024-04-13T18:15:26.933Z,19.10
2024-04-13T18:17:55.078Z,19.10
2024-04-13T18:20:22.300Z,19.03
2024-04-13T18:22:49.143Z,18.98
2024-04-13T18:25:16.485Z,18.91
2024-04-13T18:27:43.291Z,19.00
2024-04-13T18:30:10.685Z,18.98
2024-04-13T18:32:37.488Z,18.75
2024-04-13T18:35:04.939Z,18.91
2024-04-13T18:37:31.666Z,18.94
2024-04-13T18:40:01.829Z,18.96
2024-04-13T18:42:31.650Z,18.77
2024-04-13T18:44:58.794Z,18.83
2024-04-13T18:47:25.531Z,18.85
2024-04-13T18:49:54.976Z,18.76
2024-04-13T18:52:25.329Z,18.74
2024-04-13T18:54:52.149Z,18.64
2024-04-13T18:57:18.920Z,18.54
2024-04-13T18:59:47.063Z,18.50
2024-04-13T19:02:13.791Z,18.40
2024-04-13T19:04:40.433Z,18.39
2024-04-13T19:07:07.067Z,18.24
2024-04-13T19:09:33.842Z,18.13
2024-04-13T19:12:00.904Z,17.93
2024-04-13T19:14:27.603Z,17.93
2024-04-13T19:16:55.797Z,17.89
2024-04-13T19:19:22.651Z,17.80
2024-04-13T19:21:51.155Z,17.51
2024-04-13T19:24:20.535Z,17.64
2024-04-13T19:26:47.484Z,17.55
2024-04-13T19:29:15.899Z,17.51
2024-04-13T19:31:42.827Z,17.31
2024-04-13T19:34:10.290Z,17.31
2024-04-13T19:36:37.291Z,17.24
2024-04-13T19:39:04.099Z,17.19
2024-04-13T19:41:30.825Z,17.12
2024-04-13T19:43:57.531Z,17.07
2024-04-13T19:46:24.295Z,16.84
2024-04-13T19:48:51.057Z,16.94
2024-04-13T19:51:17.972Z,16.98
2024-04-13T19:53:48.059Z,16.92
2024-04-13T19:56:15.480Z,16.89
2024-04-13T19:58:42.175Z,16.80
2024-04-13T20:01:09.903Z,16.75
2024-04-13T20:03:37.508Z,16.67
2024-04-13T20:06:04.575Z,16.62
2024-04-13T20:08:31.218Z,16.51
2024-04-13T20:11:10.478Z,16.58
2024-04-13T20:13:37.618Z,16.47
2024-04-13T20:16:22.908Z,16.41
2024-04-13T20:18:50.409Z,16.38
2024-04-13T20:21:17.246Z,16.32
2024-04-13T20:23:43.945Z,16.39
2024-04-13T20:26:10.719Z,16.36
2024-04-13T20:28:37.378Z,16.27
2024-04-13T20:31:04.386Z,16.34
2024-04-13T20:33:31.788Z,16.31
2024-04-13T20:35:59.698Z,16.37
2024-04-13T20:38:27.103Z,16.26
2024-04-13T20:40:55.368Z,16.13
2024-04-13T20:43:22.190Z,15.80
2024-04-13T20:45:48.978Z,15.79
2024-04-13T20:48:16.057Z,15.94
2024-04-13T20:50:42.908Z,15.68
2024-04-13T20:53:09.811Z,15.84
2024-04-13T20:55:36.578Z,15.54
2024-04-13T20:58:05.861Z,15.56
2024-04-13T21:00:33.177Z,15.50
2024-04-13T21:03:07.342Z,15.46
2024-04-13T21:05:35.035Z,15.36
2024-04-13T21:08:02.667Z,15.12
2024-04-13T21:10:30.298Z,15.17
2024-04-13T21:12:57.087Z,15.12
2024-04-13T21:15:24.351Z,15.00
2024-04-13T21:17:51.013Z,14.98
2024-04-13T21:20:17.721Z,15.15
2024-04-13T21:22:44.372Z,15.15
2024-04-13T21:25:11.096Z,15.08
2024-04-13T21:27:37.759Z,14.89
2024-04-13T21:30:05.723Z,14.95
2024-04-13T21:32:32.408Z,14.92
2024-04-13T21:34:59.196Z,14.95
2024-04-13T21:37:25.877Z,14.84
2024-04-13T21:39:52.613Z,14.75
2024-04-13T21:42:19.947Z,14.79
2024-04-13T21:44:46.763Z,14.72
2024-04-13T21:47:13.368Z,14.65
2024-04-13T21:49:40.246Z,14.62
2024-04-13T21:52:07.018Z,14.67
2024-04-13T21:54:33.770Z,14.53
2024-04-13T21:57:00.439Z,14.65
2024-04-13T21:59:27.134Z,14.52
2024-04-13T22:01:54.381Z,14.50
2024-04-13T22:04:21.114Z,14.42
2024-04-13T22:06:47.814Z,14.42
2024-04-13T22:09:14.643Z,14.40
2024-04-13T22:11:42.852Z,14.44
2024-04-13T22:14:09.577Z,14.35
2024-04-13T22:16:37.028Z,14.30
2024-04-13T22:19:04.119Z,14.24
2024-04-13T22:21:30.973Z,14.20
2024-04-13T22:23:58.791Z,14.16
2024-04-13T22:26:25.642Z,14.15
2024-04-13T22:28:52.986Z,14.23
2024-04-13T22:31:19.744Z,14.29
2024-04-13T22:33:47.377Z,14.40
2024-04-13T22:36:14.370Z,14.69
2024-04-13T22:38:41.207Z,14.78
2024-04-13T22:41:07.909Z,15.19
2024-04-13T22:43:35.018Z,15.44
2024-04-13T22:46:03.328Z,16.12
2024-04-13T22:48:30.467Z,16.32
2024-04-13T22:51:01.236Z,16.47
2024-04-13T22:53:28.899Z,16.47
2024-04-13T22:55:57.846Z,16.62
2024-04-13T22:58:24.733Z,16.66
2024-04-13T23:00:55.397Z,16.90
2024-04-13T23:03:22.581Z,16.67
2024-04-13T23:06:00.594Z,17.03
2024-04-13T23:08:27.886Z,17.07
2024-04-13T23:10:55.216Z,17.34
2024-04-13T23:13:21.974Z,17.34
2024-04-13T23:15:49.664Z,17.34
2024-04-13T23:18:16.706Z,17.39
2024-04-13T23:20:49.735Z,17.50
2024-04-13T23:23:16.776Z,17.52
2024-04-13T23:25:47.085Z,17.56
2024-04-13T23:28:14.556Z,17.54
2024-04-13T23:30:41.521Z,17.59
2024-04-13T23:33:08.359Z,17.62
2024-04-13T23:35:35.172Z,17.69
2024-04-13T23:38:02.698Z,17.48
2024-04-13T23:40:30.105Z,17.66
2024-04-13T23:42:56.904Z,17.77
2024-04-13T23:45:23.624Z,17.80
2024-04-13T23:47:50.393Z,17.75
2024-04-13T23:50:21.252Z,17.85
2024-04-13T23:52:48.045Z,17.83
2024-04-13T23:55:15.372Z,17.76
2024-04-13T23:57:43.560Z,17.86
